Terminal Aerodrome Forecast
Issued by NWS St Louis, MO

Home | Current Version | Previous Version | Text Only | Print | Product List | Glossary On
Versions: 1 2 3 4 5 6 7 8 9 10 11 12 13
000
FTUS43 KLSX 200500
TAFCOU
TAF
KCOU 200520Z 2006/2106 VRB04KT P6SM SCT250
     FM201100 20006KT P6SM SCT250
     FM201800 18007KT P6SM SCT050=

USA.gov is the U.S. government's official web portal to all federal, state and local government web resources and services.